sensor_id;sensor_type;location;lat;lon;timestamp;P1;durP1;ratioP1;P2;durP2;ratioP2
30249;SDS011;17064;47.974;13.826;2024-03-02T00:01:01;49.33;;;21.20;;
30249;SDS011;17064;47.974;13.826;2024-03-02T00:06:03;49.42;;;21.55;;
30249;SDS011;17064;47.974;13.826;2024-03-02T00:11:04;50.80;;;21.85;;
30249;SDS011;17064;47.974;13.826;2024-03-02T00:16:05;50.22;;;22.27;;
30249;SDS011;17064;47.974;13.826;2024-03-02T00:21:06;51.65;;;20.15;;
30249;SDS011;17064;47.974;13.826;2024-03-02T00:26:11;46.95;;;21.10;;
30249;SDS011;17064;47.974;13.826;2024-03-02T00:31:12;50.08;;;20.80;;
30249;SDS011;17064;47.974;13.826;2024-03-02T00:36:14;53.13;;;20.65;;
30249;SDS011;17064;47.974;13.826;2024-03-02T00:41:24;49.58;;;21.42;;
30249;SDS011;17064;47.974;13.826;2024-03-02T00:46:30;55.10;;;22.10;;
30249;SDS011;17064;47.974;13.826;2024-03-02T00:51:37;55.58;;;23.55;;
30249;SDS011;17064;47.974;13.826;2024-03-02T00:56:39;62.75;;;23.92;;
30249;SDS011;17064;47.974;13.826;2024-03-02T01:01:42;58.33;;;23.67;;
30249;SDS011;17064;47.974;13.826;2024-03-02T01:06:43;64.38;;;24.65;;
30249;SDS011;17064;47.974;13.826;2024-03-02T01:11:44;55.72;;;23.65;;
30249;SDS011;17064;47.974;13.826;2024-03-02T01:16:44;66.38;;;25.27;;
30249;SDS011;17064;47.974;13.826;2024-03-02T01:21:45;53.50;;;23.27;;
30249;SDS011;17064;47.974;13.826;2024-03-02T01:26:45;73.20;;;27.25;;
30249;SDS011;17064;47.974;13.826;2024-03-02T01:31:46;60.42;;;22.42;;
30249;SDS011;17064;47.974;13.826;2024-03-02T01:36:47;66.95;;;24.25;;
30249;SDS011;17064;47.974;13.826;2024-03-02T01:41:48;77.22;;;27.52;;
30249;SDS011;17064;47.974;13.826;2024-03-02T01:46:49;78.22;;;27.48;;
30249;SDS011;17064;47.974;13.826;2024-03-02T01:51:50;73.57;;;26.88;;
30249;SDS011;17064;47.974;13.826;2024-03-02T01:56:51;78.05;;;28.63;;
30249;SDS011;17064;47.974;13.826;2024-03-02T02:01:52;72.63;;;28.48;;
30249;SDS011;17064;47.974;13.826;2024-03-02T02:06:53;75.45;;;27.55;;
30249;SDS011;17064;47.974;13.826;2024-03-02T02:11:54;76.03;;;28.65;;
30249;SDS011;17064;47.974;13.826;2024-03-02T02:16:55;84.00;;;28.23;;
30249;SDS011;17064;47.974;13.826;2024-03-02T02:21:55;84.72;;;28.77;;
30249;SDS011;17064;47.974;13.826;2024-03-02T02:26:56;66.00;;;25.38;;
30249;SDS011;17064;47.974;13.826;2024-03-02T02:31:57;66.05;;;26.08;;
30249;SDS011;17064;47.974;13.826;2024-03-02T02:36:57;67.65;;;26.92;;
30249;SDS011;17064;47.974;13.826;2024-03-02T02:41:58;81.38;;;28.83;;
30249;SDS011;17064;47.974;13.826;2024-03-02T02:47:01;84.90;;;28.83;;
30249;SDS011;17064;47.974;13.826;2024-03-02T02:52:01;78.85;;;27.95;;
30249;SDS011;17064;47.974;13.826;2024-03-02T02:57:03;68.85;;;25.73;;
30249;SDS011;17064;47.974;13.826;2024-03-02T03:02:03;69.97;;;26.65;;
30249;SDS011;17064;47.974;13.826;2024-03-02T03:07:04;63.97;;;26.85;;
30249;SDS011;17064;47.974;13.826;2024-03-02T03:12:05;74.57;;;27.35;;
30249;SDS011;17064;47.974;13.826;2024-03-02T03:17:06;60.30;;;24.13;;
30249;SDS011;17064;47.974;13.826;2024-03-02T03:22:08;66.93;;;25.30;;
30249;SDS011;17064;47.974;13.826;2024-03-02T03:27:09;65.50;;;25.25;;
30249;SDS011;17064;47.974;13.826;2024-03-02T03:32:11;65.72;;;25.60;;
30249;SDS011;17064;47.974;13.826;2024-03-02T03:37:12;64.13;;;24.83;;
30249;SDS011;17064;47.974;13.826;2024-03-02T03:42:13;64.93;;;24.30;;
30249;SDS011;17064;47.974;13.826;2024-03-02T03:47:13;62.60;;;24.52;;
30249;SDS011;17064;47.974;13.826;2024-03-02T03:52:14;65.10;;;24.40;;
30249;SDS011;17064;47.974;13.826;2024-03-02T03:57:15;62.28;;;24.50;;
30249;SDS011;17064;47.974;13.826;2024-03-02T04:02:16;61.50;;;23.48;;
30249;SDS011;17064;47.974;13.826;2024-03-02T04:07:17;58.55;;;22.50;;
30249;SDS011;17064;47.974;13.826;2024-03-02T04:12:18;52.88;;;23.35;;
30249;SDS011;17064;47.974;13.826;2024-03-02T04:17:18;56.63;;;21.45;;
30249;SDS011;17064;47.974;13.826;2024-03-02T04:22:19;58.45;;;23.88;;
30249;SDS011;17064;47.974;13.826;2024-03-02T04:27:20;58.25;;;23.08;;
30249;SDS011;17064;47.974;13.826;2024-03-02T04:32:20;57.88;;;22.83;;
30249;SDS011;17064;47.974;13.826;2024-03-02T04:37:21;54.97;;;22.15;;
30249;SDS011;17064;47.974;13.826;2024-03-02T04:42:22;50.58;;;21.17;;
30249;SDS011;17064;47.974;13.826;2024-03-02T04:47:22;46.08;;;21.30;;
30249;SDS011;17064;47.974;13.826;2024-03-02T04:52:23;46.70;;;20.38;;
30249;SDS011;17064;47.974;13.826;2024-03-02T04:57:24;44.70;;;19.80;;
30249;SDS011;17064;47.974;13.826;2024-03-02T05:02:24;47.35;;;20.42;;
30249;SDS011;17064;47.974;13.826;2024-03-02T05:07:25;55.20;;;22.85;;
30249;SDS011;17064;47.974;13.826;2024-03-02T05:12:26;50.75;;;22.55;;
30249;SDS011;17064;47.974;13.826;2024-03-02T05:17:49;53.85;;;23.35;;
30249;SDS011;17064;47.974;13.826;2024-03-02T05:22:50;49.60;;;21.10;;
30249;SDS011;17064;47.974;13.826;2024-03-02T05:27:51;49.33;;;20.60;;
30249;SDS011;17064;47.974;13.826;2024-03-02T05:32:51;45.03;;;20.88;;
30249;SDS011;17064;47.974;13.826;2024-03-02T05:37:52;43.60;;;19.70;;
30249;SDS011;17064;47.974;13.826;2024-03-02T05:42:53;46.72;;;21.13;;
30249;SDS011;17064;47.974;13.826;2024-03-02T05:47:53;46.67;;;20.75;;
30249;SDS011;17064;47.974;13.826;2024-03-02T05:52:54;45.88;;;20.55;;
30249;SDS011;17064;47.974;13.826;2024-03-02T05:57:56;49.42;;;22.45;;
30249;SDS011;17064;47.974;13.826;2024-03-02T06:03:05;54.15;;;24.42;;
30249;SDS011;17064;47.974;13.826;2024-03-02T06:08:07;47.58;;;21.50;;
30249;SDS011;17064;47.974;13.826;2024-03-02T06:13:08;54.47;;;22.20;;
30249;SDS011;17064;47.974;13.826;2024-03-02T06:18:09;55.10;;;23.50;;
30249;SDS011;17064;47.974;13.826;2024-03-02T06:23:09;54.80;;;23.35;;
30249;SDS011;17064;47.974;13.826;2024-03-02T06:28:10;53.78;;;21.52;;
30249;SDS011;17064;47.974;13.826;2024-03-02T06:33:11;53.55;;;23.15;;
30249;SDS011;17064;47.974;13.826;2024-03-02T06:38:12;52.83;;;22.30;;
30249;SDS011;17064;47.974;13.826;2024-03-02T06:43:12;53.38;;;21.50;;
30249;SDS011;17064;47.974;13.826;2024-03-02T06:48:13;58.25;;;22.85;;
30249;SDS011;17064;47.974;13.826;2024-03-02T06:53:18;66.35;;;25.23;;
30249;SDS011;17064;47.974;13.826;2024-03-02T06:58:19;60.90;;;24.30;;
30249;SDS011;17064;47.974;13.826;2024-03-02T07:03:20;59.20;;;23.33;;
30249;SDS011;17064;47.974;13.826;2024-03-02T07:08:21;62.90;;;24.95;;
30249;SDS011;17064;47.974;13.826;2024-03-02T07:13:21;61.35;;;24.77;;
30249;SDS011;17064;47.974;13.826;2024-03-02T07:18:22;67.15;;;25.67;;
30249;SDS011;17064;47.974;13.826;2024-03-02T07:23:23;76.85;;;26.58;;
30249;SDS011;17064;47.974;13.826;2024-03-02T07:28:27;74.50;;;27.13;;
30249;SDS011;17064;47.974;13.826;2024-03-02T07:33:28;74.57;;;29.20;;
30249;SDS011;17064;47.974;13.826;2024-03-02T07:38:28;71.45;;;26.73;;
30249;SDS011;17064;47.974;13.826;2024-03-02T07:43:30;79.80;;;27.20;;
30249;SDS011;17064;47.974;13.826;2024-03-02T07:48:33;83.60;;;29.17;;
30249;SDS011;17064;47.974;13.826;2024-03-02T07:53:33;81.72;;;28.90;;
30249;SDS011;17064;47.974;13.826;2024-03-02T07:58:34;77.63;;;29.17;;
30249;SDS011;17064;47.974;13.826;2024-03-02T08:03:35;92.35;;;30.67;;
30249;SDS011;17064;47.974;13.826;2024-03-02T08:08:37;89.88;;;30.95;;
30249;SDS011;17064;47.974;13.826;2024-03-02T08:13:37;81.68;;;29.33;;
30249;SDS011;17064;47.974;13.826;2024-03-02T08:18:38;90.50;;;30.58;;
30249;SDS011;17064;47.974;13.826;2024-03-02T08:23:39;107.88;;;33.20;;
30249;SDS011;17064;47.974;13.826;2024-03-02T08:28:42;95.47;;;30.77;;
30249;SDS011;17064;47.974;13.826;2024-03-02T08:33:42;101.50;;;33.20;;
30249;SDS011;17064;47.974;13.826;2024-03-02T08:38:43;111.25;;;33.40;;
30249;SDS011;17064;47.974;13.826;2024-03-02T08:43:44;88.00;;;30.05;;
30249;SDS011;17064;47.974;13.826;2024-03-02T08:48:45;92.32;;;30.23;;
30249;SDS011;17064;47.974;13.826;2024-03-02T08:53:45;72.18;;;26.83;;
30249;SDS011;17064;47.974;13.826;2024-03-02T08:58:46;81.60;;;28.38;;
30249;SDS011;17064;47.974;13.826;2024-03-02T09:03:47;72.47;;;25.85;;
30249;SDS011;17064;47.974;13.826;2024-03-02T09:08:49;72.22;;;26.50;;
30249;SDS011;17064;47.974;13.826;2024-03-02T09:13:52;54.83;;;23.02;;
30249;SDS011;17064;47.974;13.826;2024-03-02T09:18:53;67.43;;;26.50;;
30249;SDS011;17064;47.974;13.826;2024-03-02T09:23:53;67.13;;;24.52;;
30249;SDS011;17064;47.974;13.826;2024-03-02T09:28:54;61.55;;;22.40;;
30249;SDS011;17064;47.974;13.826;2024-03-02T09:33:55;61.45;;;21.95;;
30249;SDS011;17064;47.974;13.826;2024-03-02T09:38:55;52.33;;;22.20;;
30249;SDS011;17064;47.974;13.826;2024-03-02T09:43:56;52.33;;;21.02;;
30249;SDS011;17064;47.974;13.826;2024-03-02T09:48:58;45.47;;;19.83;;
30249;SDS011;17064;47.974;13.826;2024-03-02T09:54:00;42.13;;;18.95;;
30249;SDS011;17064;47.974;13.826;2024-03-02T09:59:01;47.65;;;19.30;;
30249;SDS011;17064;47.974;13.826;2024-03-02T10:04:02;40.00;;;18.77;;
30249;SDS011;17064;47.974;13.826;2024-03-02T10:09:05;46.05;;;19.45;;
30249;SDS011;17064;47.974;13.826;2024-03-02T10:14:06;37.42;;;16.00;;
30249;SDS011;17064;47.974;13.826;2024-03-02T10:29:15;39.35;;;16.70;;
30249;SDS011;17064;47.974;13.826;2024-03-02T10:34:16;28.70;;;13.73;;
30249;SDS011;17064;47.974;13.826;2024-03-02T10:39:17;33.10;;;14.05;;
30249;SDS011;17064;47.974;13.826;2024-03-02T10:44:17;25.45;;;11.85;;
30249;SDS011;17064;47.974;13.826;2024-03-02T10:49:19;31.60;;;11.82;;
30249;SDS011;17064;47.974;13.826;2024-03-02T10:54:22;26.80;;;12.00;;
30249;SDS011;17064;47.974;13.826;2024-03-02T10:59:33;32.53;;;11.90;;
30249;SDS011;17064;47.974;13.826;2024-03-02T11:04:35;21.95;;;10.70;;
30249;SDS011;17064;47.974;13.826;2024-03-02T11:09:38;22.83;;;11.20;;
30249;SDS011;17064;47.974;13.826;2024-03-02T11:14:45;31.58;;;14.68;;
30249;SDS011;17064;47.974;13.826;2024-03-02T11:19:46;28.35;;;14.15;;
30249;SDS011;17064;47.974;13.826;2024-03-02T11:24:48;37.50;;;17.60;;
30249;SDS011;17064;47.974;13.826;2024-03-02T11:29:49;39.63;;;16.85;;
30249;SDS011;17064;47.974;13.826;2024-03-02T11:34:51;42.45;;;16.33;;
30249;SDS011;17064;47.974;13.826;2024-03-02T11:39:52;41.85;;;18.70;;
30249;SDS011;17064;47.974;13.826;2024-03-02T11:44:52;34.90;;;15.85;;
30249;SDS011;17064;47.974;13.826;2024-03-02T11:49:57;36.30;;;15.70;;
30249;SDS011;17064;47.974;13.826;2024-03-02T11:54:59;36.20;;;15.73;;
30249;SDS011;17064;47.974;13.826;2024-03-02T12:00:03;34.05;;;15.30;;
30249;SDS011;17064;47.974;13.826;2024-03-02T12:05:05;30.93;;;15.17;;
30249;SDS011;17064;47.974;13.826;2024-03-02T12:10:08;29.73;;;14.50;;
30249;SDS011;17064;47.974;13.826;2024-03-02T12:15:08;35.25;;;15.32;;
30249;SDS011;17064;47.974;13.826;2024-03-02T12:20:11;30.95;;;14.43;;
30249;SDS011;17064;47.974;13.826;2024-03-02T12:25:12;34.53;;;15.35;;
30249;SDS011;17064;47.974;13.826;2024-03-02T12:30:14;31.67;;;14.70;;
30249;SDS011;17064;47.974;13.826;2024-03-02T12:35:17;48.45;;;16.83;;
30249;SDS011;17064;47.974;13.826;2024-03-02T12:40:18;34.80;;;15.80;;
30249;SDS011;17064;47.974;13.826;2024-03-02T12:45:20;33.10;;;14.93;;
30249;SDS011;17064;47.974;13.826;2024-03-02T12:50:30;38.05;;;17.73;;
30249;SDS011;17064;47.974;13.826;2024-03-02T12:55:31;33.58;;;16.17;;
30249;SDS011;17064;47.974;13.826;2024-03-02T13:00:32;36.25;;;15.63;;
30249;SDS011;17064;47.974;13.826;2024-03-02T13:05:35;33.40;;;15.00;;
30249;SDS011;17064;47.974;13.826;2024-03-02T13:10:35;29.45;;;13.85;;
30249;SDS011;17064;47.974;13.826;2024-03-02T13:15:37;35.60;;;14.73;;
30249;SDS011;17064;47.974;13.826;2024-03-02T13:20:38;30.60;;;13.60;;
30249;SDS011;17064;47.974;13.826;2024-03-02T13:25:40;35.13;;;13.88;;
30249;SDS011;17064;47.974;13.826;2024-03-02T13:30:40;33.38;;;13.88;;
30249;SDS011;17064;47.974;13.826;2024-03-02T13:35:41;31.58;;;14.85;;
30249;SDS011;17064;47.974;13.826;2024-03-02T13:40:42;32.88;;;14.40;;
30249;SDS011;17064;47.974;13.826;2024-03-02T13:45:43;34.88;;;16.05;;
30249;SDS011;17064;47.974;13.826;2024-03-02T13:50:44;34.25;;;15.77;;
30249;SDS011;17064;47.974;13.826;2024-03-02T13:55:45;33.65;;;16.10;;
30249;SDS011;17064;47.974;13.826;2024-03-02T14:00:46;35.25;;;16.52;;
30249;SDS011;17064;47.974;13.826;2024-03-02T14:05:47;33.60;;;15.90;;
30249;SDS011;17064;47.974;13.826;2024-03-02T14:10:50;34.25;;;14.70;;
30249;SDS011;17064;47.974;13.826;2024-03-02T14:15:50;29.75;;;13.75;;
30249;SDS011;17064;47.974;13.826;2024-03-02T14:20:51;35.65;;;14.95;;
30249;SDS011;17064;47.974;13.826;2024-03-02T14:25:52;34.47;;;14.85;;
30249;SDS011;17064;47.974;13.826;2024-03-02T14:30:53;29.52;;;14.23;;
30249;SDS011;17064;47.974;13.826;2024-03-02T14:35:54;35.47;;;15.02;;
30249;SDS011;17064;47.974;13.826;2024-03-02T14:40:55;31.30;;;14.55;;
30249;SDS011;17064;47.974;13.826;2024-03-02T14:45:56;31.83;;;13.52;;
30249;SDS011;17064;47.974;13.826;2024-03-02T14:50:59;29.77;;;13.70;;
30249;SDS011;17064;47.974;13.826;2024-03-02T14:55:59;28.65;;;13.90;;
30249;SDS011;17064;47.974;13.826;2024-03-02T15:01:00;30.80;;;13.25;;
30249;SDS011;17064;47.974;13.826;2024-03-02T15:06:01;28.77;;;13.15;;
30249;SDS011;17064;47.974;13.826;2024-03-02T15:11:04;28.30;;;12.70;;
30249;SDS011;17064;47.974;13.826;2024-03-02T15:16:04;26.48;;;11.82;;
30249;SDS011;17064;47.974;13.826;2024-03-02T15:21:05;31.67;;;13.73;;
30249;SDS011;17064;47.974;13.826;2024-03-02T15:26:06;35.08;;;14.40;;
30249;SDS011;17064;47.974;13.826;2024-03-02T15:31:07;27.05;;;12.93;;
30249;SDS011;17064;47.974;13.826;2024-03-02T15:36:08;33.38;;;13.88;;
30249;SDS011;17064;47.974;13.826;2024-03-02T15:41:09;37.05;;;14.35;;
30249;SDS011;17064;47.974;13.826;2024-03-02T15:46:10;34.30;;;15.05;;
30249;SDS011;17064;47.974;13.826;2024-03-02T15:51:10;34.90;;;13.98;;
30249;SDS011;17064;47.974;13.826;2024-03-02T15:56:12;33.35;;;15.15;;
30249;SDS011;17064;47.974;13.826;2024-03-02T16:01:12;39.75;;;15.45;;
30249;SDS011;17064;47.974;13.826;2024-03-02T16:06:13;35.40;;;16.25;;
30249;SDS011;17064;47.974;13.826;2024-03-02T16:11:14;39.92;;;16.70;;
30249;SDS011;17064;47.974;13.826;2024-03-02T16:16:15;35.90;;;15.57;;
30249;SDS011;17064;47.974;13.826;2024-03-02T16:21:16;36.85;;;16.83;;
30249;SDS011;17064;47.974;13.826;2024-03-02T16:26:17;36.85;;;16.52;;
30249;SDS011;17064;47.974;13.826;2024-03-02T16:31:18;37.60;;;16.00;;
30249;SDS011;17064;47.974;13.826;2024-03-02T16:36:18;35.85;;;15.13;;
30249;SDS011;17064;47.974;13.826;2024-03-02T16:41:20;36.47;;;15.40;;
30249;SDS011;17064;47.974;13.826;2024-03-02T16:46:21;39.15;;;15.10;;
30249;SDS011;17064;47.974;13.826;2024-03-02T16:51:22;34.38;;;15.23;;
30249;SDS011;17064;47.974;13.826;2024-03-02T16:56:22;36.03;;;14.95;;
30249;SDS011;17064;47.974;13.826;2024-03-02T17:01:23;33.60;;;14.30;;
30249;SDS011;17064;47.974;13.826;2024-03-02T17:06:26;33.30;;;15.13;;
30249;SDS011;17064;47.974;13.826;2024-03-02T17:11:27;34.13;;;15.05;;
30249;SDS011;17064;47.974;13.826;2024-03-02T17:16:28;33.80;;;14.35;;
30249;SDS011;17064;47.974;13.826;2024-03-02T17:21:29;37.00;;;16.67;;
30249;SDS011;17064;47.974;13.826;2024-03-02T17:26:30;37.60;;;17.00;;
30249;SDS011;17064;47.974;13.826;2024-03-02T17:31:31;46.00;;;19.15;;
30249;SDS011;17064;47.974;13.826;2024-03-02T17:36:32;49.17;;;21.23;;
30249;SDS011;17064;47.974;13.826;2024-03-02T17:41:32;43.55;;;18.17;;
30249;SDS011;17064;47.974;13.826;2024-03-02T17:46:33;38.50;;;16.40;;
30249;SDS011;17064;47.974;13.826;2024-03-02T17:51:33;40.70;;;16.45;;
30249;SDS011;17064;47.974;13.826;2024-03-02T17:56:34;44.20;;;18.75;;
30249;SDS011;17064;47.974;13.826;2024-03-02T18:01:35;39.92;;;17.55;;
30249;SDS011;17064;47.974;13.826;2024-03-02T18:06:36;42.28;;;17.75;;
30249;SDS011;17064;47.974;13.826;2024-03-02T18:11:38;50.85;;;22.17;;
30249;SDS011;17064;47.974;13.826;2024-03-02T18:16:39;66.60;;;28.88;;
30249;SDS011;17064;47.974;13.826;2024-03-02T18:21:40;78.90;;;31.08;;
30249;SDS011;17064;47.974;13.826;2024-03-02T18:26:41;59.58;;;24.05;;
30249;SDS011;17064;47.974;13.826;2024-03-02T18:31:41;53.78;;;22.70;;
30249;SDS011;17064;47.974;13.826;2024-03-02T18:36:43;97.07;;;33.25;;
30249;SDS011;17064;47.974;13.826;2024-03-02T18:41:44;86.53;;;29.23;;
30249;SDS011;17064;47.974;13.826;2024-03-02T18:46:45;55.08;;;22.02;;
30249;SDS011;17064;47.974;13.826;2024-03-02T18:51:45;40.55;;;17.88;;
30249;SDS011;17064;47.974;13.826;2024-03-02T18:56:46;39.25;;;16.45;;
30249;SDS011;17064;47.974;13.826;2024-03-02T19:01:47;38.70;;;15.50;;
30249;SDS011;17064;47.974;13.826;2024-03-02T19:06:49;35.90;;;16.05;;
30249;SDS011;17064;47.974;13.826;2024-03-02T19:11:49;36.38;;;15.80;;
30249;SDS011;17064;47.974;13.826;2024-03-02T19:16:50;36.13;;;14.27;;
30249;SDS011;17064;47.974;13.826;2024-03-02T19:21:51;35.38;;;15.38;;
30249;SDS011;17064;47.974;13.826;2024-03-02T19:26:52;36.47;;;16.63;;
30249;SDS011;17064;47.974;13.826;2024-03-02T19:31:52;33.28;;;13.07;;
30249;SDS011;17064;47.974;13.826;2024-03-02T19:36:53;32.83;;;15.07;;
30249;SDS011;17064;47.974;13.826;2024-03-02T19:41:57;29.48;;;13.23;;
30249;SDS011;17064;47.974;13.826;2024-03-02T19:46:59;32.53;;;13.18;;
30249;SDS011;17064;47.974;13.826;2024-03-02T19:52:00;35.15;;;13.38;;
30249;SDS011;17064;47.974;13.826;2024-03-02T19:57:01;31.17;;;14.02;;
30249;SDS011;17064;47.974;13.826;2024-03-02T20:02:02;32.22;;;12.70;;
30249;SDS011;17064;47.974;13.826;2024-03-02T20:07:04;33.05;;;14.13;;
30249;SDS011;17064;47.974;13.826;2024-03-02T20:12:05;28.92;;;11.95;;
30249;SDS011;17064;47.974;13.826;2024-03-02T20:22:09;28.63;;;11.63;;
30249;SDS011;17064;47.974;13.826;2024-03-02T20:27:09;27.77;;;11.38;;
30249;SDS011;17064;47.974;13.826;2024-03-02T20:32:10;26.38;;;11.65;;
30249;SDS011;17064;47.974;13.826;2024-03-02T20:37:11;25.65;;;11.30;;
30249;SDS011;17064;47.974;13.826;2024-03-02T20:42:12;27.90;;;12.77;;
30249;SDS011;17064;47.974;13.826;2024-03-02T20:47:13;27.27;;;12.63;;
30249;SDS011;17064;47.974;13.826;2024-03-02T20:52:13;32.72;;;11.43;;
30249;SDS011;17064;47.974;13.826;2024-03-02T20:57:14;29.10;;;12.18;;
30249;SDS011;17064;47.974;13.826;2024-03-02T21:02:15;28.58;;;12.90;;
30249;SDS011;17064;47.974;13.826;2024-03-02T21:07:16;31.02;;;12.73;;
30249;SDS011;17064;47.974;13.826;2024-03-02T21:12:18;30.42;;;13.55;;
30249;SDS011;17064;47.974;13.826;2024-03-02T21:17:19;29.55;;;11.95;;
30249;SDS011;17064;47.974;13.826;2024-03-02T21:22:19;28.58;;;12.60;;
30249;SDS011;17064;47.974;13.826;2024-03-02T21:27:21;30.08;;;12.63;;
30249;SDS011;17064;47.974;13.826;2024-03-02T21:32:22;28.40;;;13.13;;
30249;SDS011;17064;47.974;13.826;2024-03-02T21:37:23;31.52;;;11.93;;
30249;SDS011;17064;47.974;13.826;2024-03-02T21:42:24;32.63;;;11.55;;
30249;SDS011;17064;47.974;13.826;2024-03-02T21:47:24;23.80;;;11.43;;
30249;SDS011;17064;47.974;13.826;2024-03-02T21:52:25;29.63;;;11.75;;
30249;SDS011;17064;47.974;13.826;2024-03-02T21:57:26;25.20;;;10.32;;
30249;SDS011;17064;47.974;13.826;2024-03-02T22:02:26;25.23;;;10.73;;
30249;SDS011;17064;47.974;13.826;2024-03-02T22:07:27;21.17;;;9.43;;
30249;SDS011;17064;47.974;13.826;2024-03-02T22:12:27;26.88;;;11.05;;
30249;SDS011;17064;47.974;13.826;2024-03-02T22:17:28;22.33;;;10.30;;
30249;SDS011;17064;47.974;13.826;2024-03-02T22:22:29;22.25;;;10.80;;
30249;SDS011;17064;47.974;13.826;2024-03-02T22:27:29;25.02;;;10.38;;
30249;SDS011;17064;47.974;13.826;2024-03-02T22:32:30;27.45;;;10.73;;
30249;SDS011;17064;47.974;13.826;2024-03-02T22:37:31;30.13;;;12.00;;
30249;SDS011;17064;47.974;13.826;2024-03-02T22:42:32;26.10;;;11.40;;
30249;SDS011;17064;47.974;13.826;2024-03-02T22:47:32;29.52;;;10.90;;
30249;SDS011;17064;47.974;13.826;2024-03-02T22:52:34;30.30;;;12.65;;
30249;SDS011;17064;47.974;13.826;2024-03-02T22:57:35;28.23;;;11.75;;
30249;SDS011;17064;47.974;13.826;2024-03-02T23:02:36;32.30;;;12.75;;
30249;SDS011;17064;47.974;13.826;2024-03-02T23:07:37;28.65;;;11.88;;
30249;SDS011;17064;47.974;13.826;2024-03-02T23:12:37;24.75;;;11.48;;
30249;SDS011;17064;47.974;13.826;2024-03-02T23:17:38;29.88;;;12.45;;
30249;SDS011;17064;47.974;13.826;2024-03-02T23:22:39;25.80;;;12.07;;
30249;SDS011;17064;47.974;13.826;2024-03-02T23:27:40;29.98;;;10.98;;
30249;SDS011;17064;47.974;13.826;2024-03-02T23:32:41;29.67;;;12.57;;
30249;SDS011;17064;47.974;13.826;2024-03-02T23:37:42;27.48;;;12.63;;
30249;SDS011;17064;47.974;13.826;2024-03-02T23:42:43;27.30;;;11.57;;
30249;SDS011;17064;47.974;13.826;2024-03-02T23:47:44;28.73;;;12.98;;
30249;SDS011;17064;47.974;13.826;2024-03-02T23:52:44;27.80;;;13.35;;
30249;SDS011;17064;47.974;13.826;2024-03-02T23:57:45;31.23;;;14.52;;
